McDowell, Kentucky
Current Conditions -  °F | °C
As of 10:55 PM on Saturday 25 Oct 2014 (Local Time) from KPBX Reporting Station
Clear Clear  
Wind Chill: 59°   Ceiling: Unl
Heat Index: 59°   Visibility: 10mi
Dew Point: 53°   Wind: 3mph
Humidity: 80%   Direction: 220°SW
Pressure: 29.97"   Gusts: NA
Location:  37.46°N, 82.74°W
Report Text: KPBX 260255Z AUTO 22003KT 10SM CLR 15/12 A2997 RMK AO2 T01500116
Loading
Personal Weather Stations






























Interactive Weather Map
Tropical Storm Tracking
New forecast layout! Learn more

10-Day Weather Forecast

Advertisements
Track Severe Weather on mobile